Pryor, OK (74361)

1:24 PM CDT on March 26, 2017 (GMT -0500)
Northfork | | Change Station

Elev 636 ft 36.33 °N, 95.29 °W | Updated 1 minute ago

Partly Cloudy
Partly Cloudy
66.5 °F
Feels Like 66.5 °F
N
2.0
Wind Variable Wind from East
Gusts 5.0 mph

Today
High -- | Low -- °F
--% Chance of Precip.
Yesterday
High -- | Low -- °F
Precip. -- in
Pressure 29.91 in
Visibility 3.0 miles
Clouds Scattered Clouds 300 ft
Scattered Clouds 800 ft
Mostly Cloudy 1700 ft
Dew Point 53 °F
Humidity 62%
Rainfall 0.00 in
Snow Depth Not available.
7:15 AM 7:38 PM
Waning Crescent, 2% visible
METAR KGCM 261815Z AUTO 13005KT 3SM HZ SCT003 SCT008 BKN017 17/08 A2991 RMK AO2
Pressure 29.91 in
Visibility 3.0 miles
Clouds Scattered Clouds 300 ft
Scattered Clouds 800 ft
Mostly Cloudy 1700 ft
Dew Point 53 °F
Humidity 62%
Rainfall 0.00 in
Snow Depth Not available.
7:15 AM 7:38 PM
Waning Crescent, 2% visible
METAR KGCM 261815Z AUTO 13005KT 3SM HZ SCT003 SCT008 BKN017 17/08 A2991 RMK AO2

Get Severe Weather Alerts

Thanks for signing up!

Be on the lookout for a verification email in your inbox.

You'll start receiving the daily forecast at 8 AM.

×

10-Day Weather Forecast

Almanac

Astronomy

Mar. 26, 2017 Rise Set
Actual Time
Civil Twilight
Nautical Twilight
Astronomical Twilight
Moon
Length of Visible Light
Length of Day
Tomorrow will be .
, % of the Moon is Illuminated

Today's Extremes

State Highs State Lows

Community

WunderPhotos

Upload Photos

1,962,540 photos uploaded!

WunderBlog® & News

Nearby

Air Quality

  Air Quality AQ Index Pollutant
Not available.

Snow Depth

Station Depth Elevation

Earthquake Activity

City Distance Mag. Time & Date
Minimum magnitude displayed is 2.5.

Earthquake Activity

City Distance Mag. Time & Date
Minimum magnitude displayed is 2.5.

Coastal Water Temperatures

Place Temperature

Stations

Nearby Weather Stations

Station Location Temp. Windchill Dew Point Humidity Wind Precip. Elev Updated Type
                   

Watches & Warnings

There are currently no watches in effect.